createdAt,value
2018-05-31T00:01:49.692Z,14.92
2018-05-31T00:04:18.147Z,14.83
2018-05-31T00:06:46.552Z,14.81
2018-05-31T00:09:15.019Z,14.92
2018-05-31T00:11:43.593Z,14.74
2018-05-31T00:14:11.973Z,14.76
2018-05-31T00:16:40.447Z,14.67
2018-05-31T00:19:09.177Z,14.67
2018-05-31T00:21:37.602Z,14.76
2018-05-31T00:24:06.026Z,14.50
2018-05-31T00:26:34.756Z,14.68
2018-05-31T00:29:03.159Z,14.69
2018-05-31T00:31:31.596Z,14.60
2018-05-31T00:34:00.529Z,14.51
2018-05-31T00:36:28.936Z,14.46
2018-05-31T00:38:57.344Z,14.22
2018-05-31T00:41:25.848Z,14.42
2018-05-31T00:43:54.279Z,14.29
2018-05-31T00:46:22.705Z,14.47
2018-05-31T00:48:51.487Z,14.37
2018-05-31T00:51:19.906Z,14.07
2018-05-31T00:53:48.334Z,14.16
2018-05-31T00:56:18.990Z,13.93
2018-05-31T00:58:47.416Z,13.85
2018-05-31T01:01:15.843Z,13.79
2018-05-31T01:03:44.340Z,13.94
2018-05-31T01:06:12.761Z,13.75
2018-05-31T01:08:41.427Z,13.39
2018-05-31T01:11:10.191Z,13.60
2018-05-31T01:13:38.627Z,13.70
2018-05-31T01:16:07.037Z,13.85
2018-05-31T01:18:35.847Z,14.00
2018-05-31T01:21:04.313Z,13.68
2018-05-31T01:23:32.745Z,13.48
2018-05-31T01:26:01.170Z,13.62
2018-05-31T01:28:29.647Z,13.66
2018-05-31T01:30:58.063Z,13.42
2018-05-31T01:33:26.530Z,13.44
2018-05-31T01:35:54.924Z,13.61
2018-05-31T01:38:33.276Z,13.75
2018-05-31T01:41:01.717Z,13.47
2018-05-31T01:43:30.203Z,13.36
2018-05-31T01:45:58.651Z,13.14
2018-05-31T01:48:27.071Z,13.38
2018-05-31T01:50:55.534Z,13.41
2018-05-31T01:53:23.967Z,13.46
2018-05-31T01:55:52.460Z,13.37
2018-05-31T01:58:20.861Z,13.07
2018-05-31T02:00:49.276Z,12.91
2018-05-31T02:03:17.728Z,13.23
2018-05-31T02:05:46.167Z,12.86
2018-05-31T02:08:14.581Z,13.05
2018-05-31T02:10:43.191Z,12.59
2018-05-31T02:13:11.669Z,12.61
2018-05-31T02:15:40.131Z,12.88
2018-05-31T02:18:08.587Z,12.37
2018-05-31T02:20:36.986Z,12.69
2018-05-31T02:23:05.451Z,12.94
2018-05-31T02:25:34.045Z,12.89
2018-05-31T02:28:02.514Z,12.84
2018-05-31T02:30:30.964Z,12.84
2018-05-31T02:32:59.370Z,12.76
2018-05-31T02:35:27.874Z,12.90
2018-05-31T02:37:56.337Z,12.77
2018-05-31T02:40:25.165Z,12.39
2018-05-31T02:42:53.612Z,12.60
2018-05-31T02:45:22.062Z,12.63
2018-05-31T02:47:50.632Z,12.78
2018-05-31T02:50:19.139Z,12.66
2018-05-31T02:52:47.559Z,12.58
2018-05-31T02:55:16.795Z,12.63
2018-05-31T02:57:45.264Z,12.70
2018-05-31T03:00:13.765Z,12.61
2018-05-31T03:02:42.235Z,12.50
2018-05-31T03:05:10.680Z,12.76
2018-05-31T03:07:39.196Z,12.84
2018-05-31T03:10:07.650Z,12.83
2018-05-31T03:12:36.114Z,12.73
2018-05-31T03:15:04.603Z,12.82
2018-05-31T03:17:33.048Z,12.84
2018-05-31T03:20:01.561Z,13.02
2018-05-31T03:22:30.035Z,13.02
2018-05-31T03:24:58.546Z,13.03
2018-05-31T03:27:26.961Z,12.95
2018-05-31T03:29:55.411Z,12.77
2018-05-31T03:32:23.839Z,12.96
2018-05-31T03:34:52.288Z,13.17
2018-05-31T03:37:20.719Z,13.11
2018-05-31T03:39:49.219Z,13.35
2018-05-31T03:42:17.682Z,13.21
2018-05-31T03:44:46.200Z,13.35
2018-05-31T03:47:14.616Z,13.54
2018-05-31T03:49:43.036Z,13.74
2018-05-31T03:52:11.533Z,13.93
2018-05-31T03:54:40.049Z,14.15
2018-05-31T03:57:08.551Z,14.41
2018-05-31T03:59:36.998Z,14.41
2018-05-31T04:02:05.406Z,14.34
2018-05-31T04:04:33.872Z,14.50
2018-05-31T04:07:02.295Z,14.86
2018-05-31T04:09:30.769Z,15.21
2018-05-31T04:11:59.223Z,15.51
2018-05-31T04:14:27.632Z,15.37
2018-05-31T04:16:56.051Z,15.62
2018-05-31T04:19:24.530Z,16.04
2018-05-31T04:21:53.155Z,16.24
2018-05-31T04:24:21.631Z,16.20
2018-05-31T04:26:50.095Z,16.39
2018-05-31T04:29:18.563Z,16.62
2018-05-31T04:31:47.036Z,16.88
2018-05-31T04:34:15.529Z,16.94
2018-05-31T04:36:44.010Z,16.92
2018-05-31T04:39:12.447Z,17.11
2018-05-31T04:41:40.912Z,17.40
2018-05-31T04:44:09.507Z,17.41
2018-05-31T04:46:38.015Z,17.68
2018-05-31T04:49:06.625Z,17.67
2018-05-31T04:51:35.188Z,17.86
2018-05-31T04:54:03.684Z,18.07
2018-05-31T04:56:32.118Z,18.29
2018-05-31T04:59:00.571Z,18.32
2018-05-31T05:01:30.031Z,18.41
2018-05-31T05:03:58.463Z,18.59
2018-05-31T05:06:26.939Z,18.57
2018-05-31T05:08:55.380Z,18.60
2018-05-31T05:11:23.835Z,18.68
2018-05-31T05:13:52.408Z,18.54
2018-05-31T05:16:21.232Z,18.75
2018-05-31T05:18:49.780Z,18.69
2018-05-31T05:21:18.184Z,18.58
2018-05-31T05:23:46.659Z,18.72
2018-05-31T05:26:15.140Z,18.79
2018-05-31T05:28:43.648Z,18.84
2018-05-31T05:31:12.224Z,18.85
2018-05-31T05:33:40.647Z,19.23
2018-05-31T05:36:09.118Z,19.33
2018-05-31T05:38:37.553Z,19.52
2018-05-31T05:41:06.010Z,19.56
2018-05-31T05:43:34.564Z,19.73
2018-05-31T05:46:03.083Z,19.84
2018-05-31T05:48:31.512Z,19.99
2018-05-31T05:50:59.938Z,19.73
2018-05-31T05:53:28.475Z,19.73
2018-05-31T05:55:56.899Z,19.92
2018-05-31T05:58:25.328Z,19.96
2018-05-31T06:00:53.809Z,20.13
2018-05-31T06:03:22.261Z,20.38
2018-05-31T06:05:50.662Z,20.46
2018-05-31T06:08:19.177Z,20.39
2018-05-31T06:10:47.591Z,20.68
2018-05-31T06:13:16.052Z,20.73
2018-05-31T06:15:44.571Z,20.79
2018-05-31T06:18:12.991Z,20.84
2018-05-31T06:20:41.559Z,20.85
2018-05-31T06:23:10.015Z,20.90
2018-05-31T06:25:38.436Z,21.01
2018-05-31T06:28:06.864Z,20.80
2018-05-31T06:30:35.380Z,21.17
2018-05-31T06:33:03.797Z,21.29
2018-05-31T06:35:32.219Z,21.10
2018-05-31T06:38:00.722Z,21.45
2018-05-31T06:40:29.159Z,21.26
2018-05-31T06:42:57.629Z,21.36
2018-05-31T06:45:26.164Z,21.71
2018-05-31T06:47:54.546Z,21.81
2018-05-31T06:50:23.092Z,21.79
2018-05-31T06:52:51.496Z,21.91
2018-05-31T06:55:20.012Z,22.12
2018-05-31T06:57:48.411Z,22.19
2018-05-31T07:00:16.860Z,22.21
2018-05-31T07:02:45.312Z,22.28
2018-05-31T07:05:13.787Z,22.32
2018-05-31T07:07:42.180Z,22.37
2018-05-31T07:10:10.576Z,22.78
2018-05-31T07:12:39.031Z,22.74
2018-05-31T07:15:07.501Z,22.87
2018-05-31T07:17:35.945Z,22.94
2018-05-31T07:20:04.352Z,23.00
2018-05-31T07:22:32.761Z,22.80
2018-05-31T07:25:01.202Z,23.11
2018-05-31T07:27:29.786Z,23.21
2018-05-31T07:29:58.200Z,23.20
2018-05-31T07:32:26.631Z,23.53
2018-05-31T07:34:55.081Z,23.55
2018-05-31T07:37:23.533Z,23.71
2018-05-31T07:39:52.027Z,24.00
2018-05-31T07:42:20.475Z,23.92
2018-05-31T07:44:48.888Z,23.97
2018-05-31T07:47:17.290Z,24.04
2018-05-31T07:49:45.731Z,23.98
2018-05-31T07:52:14.153Z,24.12
2018-05-31T07:54:42.598Z,24.23
2018-05-31T07:57:10.991Z,24.17
2018-05-31T07:59:39.447Z,24.23
2018-05-31T08:02:07.936Z,24.25
2018-05-31T08:04:36.390Z,24.48
2018-05-31T08:07:04.811Z,24.80
2018-05-31T08:09:33.362Z,24.78
2018-05-31T08:12:01.818Z,24.63
2018-05-31T08:14:30.270Z,24.51
2018-05-31T08:16:58.701Z,24.90
2018-05-31T08:19:27.140Z,25.18
2018-05-31T08:21:55.614Z,25.08
2018-05-31T08:24:24.041Z,25.51
2018-05-31T08:26:52.486Z,25.42
2018-05-31T08:29:20.949Z,25.46
2018-05-31T08:31:49.403Z,25.19
2018-05-31T08:34:17.811Z,25.30
2018-05-31T08:36:46.243Z,25.50
2018-05-31T08:39:14.703Z,25.27
2018-05-31T08:41:43.126Z,25.61
2018-05-31T08:44:11.654Z,25.30
2018-05-31T08:46:40.036Z,25.05
2018-05-31T08:49:08.462Z,25.39
2018-05-31T08:51:36.891Z,25.60
2018-05-31T08:54:05.379Z,25.56
2018-05-31T08:56:33.840Z,25.68
2018-05-31T08:59:02.301Z,26.08
2018-05-31T09:01:30.771Z,26.06
2018-05-31T09:03:59.184Z,26.22
2018-05-31T09:06:27.731Z,26.55
2018-05-31T09:08:56.226Z,26.74
2018-05-31T09:11:24.693Z,26.87
2018-05-31T09:13:53.134Z,26.53
2018-05-31T09:16:21.760Z,26.45
2018-05-31T09:18:50.183Z,26.62
2018-05-31T09:21:18.669Z,26.97
2018-05-31T09:23:47.098Z,26.77
2018-05-31T09:26:15.561Z,26.78
2018-05-31T09:28:43.971Z,26.71
2018-05-31T09:31:12.436Z,27.29
2018-05-31T09:33:40.888Z,27.22
2018-05-31T09:36:09.313Z,27.37
2018-05-31T09:38:37.900Z,27.42
2018-05-31T09:41:06.381Z,27.46
2018-05-31T09:43:34.838Z,27.50
2018-05-31T09:46:03.255Z,27.52
2018-05-31T09:48:31.740Z,27.67
2018-05-31T09:51:00.179Z,28.22
2018-05-31T09:53:28.583Z,28.09
2018-05-31T09:55:57.032Z,28.01
2018-05-31T09:58:26.529Z,28.29
2018-05-31T10:00:55.295Z,28.41
2018-05-31T10:03:23.712Z,28.75
2018-05-31T10:05:52.142Z,28.58
2018-05-31T10:08:20.546Z,28.20
2018-05-31T10:10:49.000Z,28.65
2018-05-31T10:13:17.396Z,28.63
2018-05-31T10:15:45.855Z,29.13
2018-05-31T10:18:14.443Z,29.34
2018-05-31T10:20:42.876Z,29.17
2018-05-31T10:23:11.288Z,29.51
2018-05-31T10:25:39.758Z,29.34
2018-05-31T10:28:08.217Z,29.57
2018-05-31T10:30:36.670Z,29.99
2018-05-31T10:33:05.093Z,29.58
2018-05-31T10:35:33.603Z,29.69
2018-05-31T10:38:02.067Z,30.39
2018-05-31T10:40:30.478Z,29.28
2018-05-31T10:42:58.972Z,29.76
2018-05-31T10:45:27.441Z,29.95
2018-05-31T10:47:55.929Z,30.15
2018-05-31T10:50:24.391Z,30.57
2018-05-31T10:52:52.905Z,30.97
2018-05-31T10:55:21.383Z,30.89
2018-05-31T10:57:49.774Z,32.31
2018-05-31T11:00:18.225Z,32.71
2018-05-31T11:02:46.652Z,33.14
2018-05-31T11:05:15.115Z,32.39
2018-05-31T11:07:43.563Z,32.14
2018-05-31T11:10:12.032Z,32.49
2018-05-31T11:12:40.485Z,32.77
2018-05-31T11:15:08.910Z,29.99
2018-05-31T11:17:37.362Z,31.38
2018-05-31T11:20:05.827Z,31.78
2018-05-31T11:22:34.231Z,31.75
2018-05-31T11:25:02.664Z,32.92
2018-05-31T11:27:31.111Z,33.66
2018-05-31T11:29:59.628Z,34.58
2018-05-31T11:32:28.033Z,35.07
2018-05-31T11:34:56.487Z,35.49
2018-05-31T11:37:24.985Z,35.26
2018-05-31T11:39:53.424Z,35.37
2018-05-31T11:42:21.863Z,35.24
2018-05-31T11:44:50.255Z,34.35
2018-05-31T11:47:18.720Z,34.94
2018-05-31T11:49:47.189Z,35.80
2018-05-31T11:52:15.620Z,35.15
2018-05-31T11:54:44.051Z,34.76
2018-05-31T11:57:12.521Z,34.03
2018-05-31T11:59:40.912Z,30.89
2018-05-31T12:02:09.376Z,32.15
2018-05-31T12:04:37.857Z,31.85
2018-05-31T12:07:06.287Z,31.30
2018-05-31T12:09:34.724Z,33.11
2018-05-31T12:12:03.227Z,34.88
2018-05-31T12:14:31.786Z,35.51
2018-05-31T12:17:00.190Z,36.43
2018-05-31T12:19:28.620Z,36.35
2018-05-31T12:21:57.098Z,34.65
2018-05-31T12:24:25.565Z,35.76
2018-05-31T12:26:54.010Z,35.29
2018-05-31T12:29:22.440Z,36.04
2018-05-31T12:31:50.928Z,34.69
2018-05-31T12:34:19.411Z,35.04
2018-05-31T12:36:47.842Z,35.50
2018-05-31T12:39:16.292Z,35.34
2018-05-31T12:41:44.728Z,34.12
2018-05-31T12:44:13.151Z,34.64
2018-05-31T12:46:41.572Z,34.07
2018-05-31T12:49:10.024Z,35.39
2018-05-31T12:51:38.422Z,35.83
2018-05-31T12:54:06.879Z,36.67
2018-05-31T12:56:35.283Z,38.11
2018-05-31T12:59:03.802Z,38.95
2018-05-31T13:01:32.200Z,38.03
2018-05-31T13:04:00.612Z,36.14
2018-05-31T13:06:29.041Z,35.61
2018-05-31T13:08:57.439Z,37.01
2018-05-31T13:11:25.900Z,38.12
2018-05-31T13:13:54.289Z,38.48
2018-05-31T13:16:22.787Z,38.79
2018-05-31T13:18:51.186Z,38.61
2018-05-31T13:21:19.619Z,39.13
2018-05-31T13:23:48.018Z,40.24
2018-05-31T13:26:16.450Z,39.33
2018-05-31T13:28:44.921Z,39.38
2018-05-31T13:31:13.319Z,37.88
2018-05-31T13:33:41.735Z,37.93
2018-05-31T13:36:10.203Z,38.65
2018-05-31T13:38:38.925Z,38.79
2018-05-31T13:41:07.388Z,38.60
2018-05-31T13:43:35.774Z,37.51
2018-05-31T13:46:04.267Z,38.23
2018-05-31T13:48:32.740Z,38.07
2018-05-31T13:51:01.262Z,38.65
2018-05-31T13:53:29.713Z,39.54
2018-05-31T13:55:58.163Z,39.48
2018-05-31T13:58:26.559Z,39.41
2018-05-31T14:00:55.030Z,39.70
2018-05-31T14:03:23.624Z,38.84
2018-05-31T14:05:52.045Z,39.81
2018-05-31T14:08:20.449Z,39.85
2018-05-31T14:10:48.852Z,38.31
2018-05-31T14:13:17.309Z,36.04
2018-05-31T14:15:45.774Z,35.06
2018-05-31T14:18:14.165Z,35.99
2018-05-31T14:20:42.607Z,36.46
2018-05-31T14:23:11.049Z,35.70
2018-05-31T14:25:39.451Z,37.37
2018-05-31T14:28:07.923Z,38.24
2018-05-31T14:30:36.381Z,38.97
2018-05-31T14:33:04.808Z,39.73
2018-05-31T14:35:33.252Z,39.46
2018-05-31T14:38:01.700Z,38.11
2018-05-31T14:40:30.155Z,36.26
2018-05-31T14:42:58.612Z,38.07
2018-05-31T14:45:27.071Z,39.93
2018-05-31T14:47:55.694Z,39.47
2018-05-31T14:50:24.082Z,40.36
2018-05-31T14:52:52.459Z,39.71
2018-05-31T14:55:20.903Z,37.75
2018-05-31T14:57:49.307Z,39.03
2018-05-31T15:00:17.700Z,39.74
2018-05-31T15:02:46.175Z,38.31
2018-05-31T15:05:14.603Z,39.08
2018-05-31T15:07:42.998Z,39.24
2018-05-31T15:10:11.431Z,39.33
2018-05-31T15:12:40.086Z,38.36
2018-05-31T15:15:08.469Z,37.91
2018-05-31T15:17:36.859Z,37.36
2018-05-31T15:20:05.311Z,37.17
2018-05-31T15:22:33.720Z,36.31
2018-05-31T15:25:02.185Z,35.48
2018-05-31T15:27:30.581Z,36.45
2018-05-31T15:29:59.080Z,36.65
2018-05-31T15:32:27.503Z,37.32
2018-05-31T15:34:56.017Z,38.76
2018-05-31T15:37:24.465Z,37.06
2018-05-31T15:39:52.892Z,35.99
2018-05-31T15:42:21.291Z,36.46
2018-05-31T15:44:49.765Z,36.12
2018-05-31T15:47:18.321Z,37.19
2018-05-31T15:49:46.768Z,37.69
2018-05-31T15:52:15.196Z,38.31
2018-05-31T15:54:43.750Z,38.93
2018-05-31T15:57:12.173Z,40.26
2018-05-31T15:59:40.600Z,39.95
2018-05-31T16:02:09.023Z,39.18
2018-05-31T16:04:37.411Z,38.51
2018-05-31T16:07:05.889Z,38.79
2018-05-31T16:09:34.325Z,38.32
2018-05-31T16:12:02.799Z,38.14
2018-05-31T16:14:31.209Z,37.79
2018-05-31T16:16:59.654Z,38.24
2018-05-31T16:19:28.107Z,38.36
2018-05-31T16:21:56.550Z,37.84
2018-05-31T16:24:24.944Z,38.85
2018-05-31T16:26:53.399Z,39.06
2018-05-31T16:29:21.850Z,38.32
2018-05-31T16:31:50.290Z,37.41
2018-05-31T16:34:18.700Z,38.16
2018-05-31T16:36:47.096Z,37.98
2018-05-31T16:39:15.518Z,37.85
2018-05-31T16:41:43.918Z,37.43
2018-05-31T16:44:12.407Z,36.63
2018-05-31T16:46:40.905Z,37.43
2018-05-31T16:49:09.333Z,36.95
2018-05-31T16:51:37.757Z,36.70
2018-05-31T16:54:06.254Z,35.97
2018-05-31T16:56:34.715Z,35.52
2018-05-31T16:59:03.196Z,34.62
2018-05-31T17:01:31.586Z,35.05
2018-05-31T17:04:00.047Z,34.65
2018-05-31T17:06:28.452Z,34.93
2018-05-31T17:08:57.034Z,34.63
2018-05-31T17:11:25.439Z,34.30
2018-05-31T17:13:53.883Z,34.60
2018-05-31T17:16:22.306Z,33.97
2018-05-31T17:18:50.762Z,33.63
2018-05-31T17:21:19.174Z,33.45
2018-05-31T17:23:48.308Z,33.10
2018-05-31T17:26:16.829Z,32.89
2018-05-31T17:28:45.279Z,31.99
2018-05-31T17:31:13.713Z,30.62
2018-05-31T17:33:42.307Z,30.86
2018-05-31T17:36:10.715Z,30.64
2018-05-31T17:38:39.152Z,30.06
2018-05-31T17:41:07.556Z,29.61
2018-05-31T17:43:35.983Z,29.21
2018-05-31T17:46:04.448Z,27.74
2018-05-31T17:48:32.837Z,27.18
2018-05-31T17:51:01.265Z,26.61
2018-05-31T17:53:29.664Z,25.59
2018-05-31T17:55:58.127Z,25.39
2018-05-31T17:58:26.680Z,25.11
2018-05-31T18:00:55.068Z,24.54
2018-05-31T18:03:23.581Z,24.51
2018-05-31T18:05:52.003Z,24.36
2018-05-31T18:08:20.478Z,24.43
2018-05-31T18:10:48.947Z,24.00
2018-05-31T18:13:17.424Z,23.43
2018-05-31T18:15:45.814Z,23.41
2018-05-31T18:18:14.197Z,22.88
2018-05-31T18:20:42.667Z,23.08
2018-05-31T18:23:11.166Z,23.03
2018-05-31T18:25:39.587Z,23.05
2018-05-31T18:28:08.046Z,22.75
2018-05-31T18:30:36.453Z,22.69
2018-05-31T18:33:04.949Z,22.74
2018-05-31T18:35:33.351Z,22.61
2018-05-31T18:38:01.866Z,22.45
2018-05-31T18:40:30.327Z,22.62
2018-05-31T18:42:58.725Z,22.53
2018-05-31T18:45:27.119Z,22.42
2018-05-31T18:47:55.590Z,22.22
2018-05-31T18:50:24.032Z,22.09
2018-05-31T18:52:52.472Z,21.95
2018-05-31T18:55:20.848Z,21.44
2018-05-31T18:57:49.323Z,21.26
2018-05-31T19:00:17.777Z,21.28
2018-05-31T19:02:46.169Z,21.35
2018-05-31T19:05:14.572Z,21.17
2018-05-31T19:07:43.045Z,20.78
2018-05-31T19:10:11.505Z,20.46
2018-05-31T19:12:45.645Z,20.70
2018-05-31T19:15:21.632Z,20.19
2018-05-31T19:17:42.507Z,19.89
2018-05-31T19:20:10.961Z,20.08
2018-05-31T19:22:39.417Z,19.53
2018-05-31T19:25:13.657Z,19.71
2018-05-31T19:27:42.228Z,19.71
2018-05-31T19:30:16.204Z,19.57
2018-05-31T19:32:44.723Z,19.45
2018-05-31T19:35:18.880Z,19.50
2018-05-31T19:37:47.291Z,19.52
2018-05-31T19:40:15.848Z,19.52
2018-05-31T19:42:49.979Z,19.42
2018-05-31T19:45:18.435Z,19.22
2018-05-31T19:47:46.837Z,19.08
2018-05-31T19:50:15.405Z,19.15
2018-05-31T19:52:49.395Z,19.15
2018-05-31T19:55:17.888Z,19.01
2018-05-31T19:57:51.984Z,19.29
2018-05-31T20:00:25.957Z,19.20
2018-05-31T20:02:59.900Z,18.82
2018-05-31T20:05:28.572Z,18.84
2018-05-31T20:07:57.024Z,18.73
2018-05-31T20:10:25.412Z,18.74
2018-05-31T20:12:53.908Z,18.75
2018-05-31T20:15:22.334Z,18.79
2018-05-31T20:17:50.772Z,18.36
2018-05-31T20:20:19.199Z,18.05
2018-05-31T20:22:47.790Z,18.26
2018-05-31T20:25:16.201Z,17.95
2018-05-31T20:27:44.654Z,18.05
2018-05-31T20:30:13.075Z,17.79
2018-05-31T20:32:41.519Z,17.72
2018-05-31T20:35:09.907Z,17.65
2018-05-31T20:37:38.296Z,17.65
2018-05-31T20:40:06.744Z,17.63
2018-05-31T20:42:35.180Z,18.10
2018-05-31T20:45:03.695Z,17.98
2018-05-31T20:47:32.133Z,17.92
2018-05-31T20:50:00.532Z,17.52
2018-05-31T20:52:28.927Z,17.84
2018-05-31T20:54:57.352Z,17.84
2018-05-31T20:57:25.759Z,17.78
2018-05-31T20:59:54.202Z,17.76
2018-05-31T21:02:22.748Z,17.62
2018-05-31T21:04:51.148Z,17.81
2018-05-31T21:07:19.615Z,17.69
2018-05-31T21:09:48.066Z,17.53
2018-05-31T21:12:16.508Z,17.82
2018-05-31T21:14:44.892Z,17.28
2018-05-31T21:17:13.285Z,17.37
2018-05-31T21:19:41.720Z,17.57
2018-05-31T21:22:10.118Z,17.60
2018-05-31T21:24:38.543Z,17.44
2018-05-31T21:27:06.933Z,17.11
2018-05-31T21:29:35.368Z,17.19
2018-05-31T21:32:03.792Z,17.09
2018-05-31T21:34:32.196Z,17.23
2018-05-31T21:37:00.631Z,17.13
2018-05-31T21:39:29.080Z,17.25
2018-05-31T21:41:57.486Z,17.09
2018-05-31T21:44:25.904Z,17.01
2018-05-31T21:46:54.388Z,16.98
2018-05-31T21:49:22.807Z,16.54
2018-05-31T21:51:51.168Z,16.39
2018-05-31T21:54:19.614Z,16.71
2018-05-31T21:56:48.039Z,16.77
2018-05-31T21:59:16.455Z,16.77
2018-05-31T22:01:44.852Z,16.75
2018-05-31T22:04:13.348Z,16.64
2018-05-31T22:06:41.784Z,16.33
2018-05-31T22:09:10.171Z,16.52
2018-05-31T22:11:38.580Z,16.56
2018-05-31T22:14:07.099Z,16.53
2018-05-31T22:16:35.575Z,16.51
2018-05-31T22:19:04.048Z,16.52
2018-05-31T22:21:32.470Z,16.51
2018-05-31T22:24:00.937Z,16.41
2018-05-31T22:26:29.537Z,16.31
2018-05-31T22:28:58.050Z,16.45
2018-05-31T22:31:26.453Z,16.26
2018-05-31T22:33:54.823Z,16.21
2018-05-31T22:36:23.230Z,16.23
2018-05-31T22:38:51.626Z,16.12
2018-05-31T22:41:20.077Z,16.12
2018-05-31T22:43:48.568Z,16.05
2018-05-31T22:46:16.974Z,15.79
2018-05-31T22:48:45.352Z,15.62
2018-05-31T22:51:13.815Z,15.63
2018-05-31T22:53:42.227Z,15.77
2018-05-31T22:56:10.640Z,15.73
2018-05-31T22:58:39.079Z,15.79
2018-05-31T23:01:07.489Z,15.73
2018-05-31T23:03:35.959Z,15.79
2018-05-31T23:06:04.377Z,15.72
2018-05-31T23:08:38.338Z,15.50
2018-05-31T23:11:06.738Z,15.65
2018-05-31T23:13:35.187Z,15.57
2018-05-31T23:16:04.502Z,15.69
2018-05-31T23:18:32.976Z,15.52
2018-05-31T23:21:01.424Z,15.15
2018-05-31T23:23:29.827Z,15.22
2018-05-31T23:25:58.219Z,15.30
2018-05-31T23:28:26.831Z,15.51
2018-05-31T23:30:55.279Z,15.58
2018-05-31T23:33:23.676Z,15.39
2018-05-31T23:35:52.133Z,15.16
2018-05-31T23:38:20.547Z,15.30
2018-05-31T23:40:49.009Z,15.29
2018-05-31T23:43:17.377Z,15.30
2018-05-31T23:45:45.812Z,15.17
2018-05-31T23:48:14.281Z,15.16
2018-05-31T23:50:42.779Z,15.13
2018-05-31T23:53:11.207Z,15.18
2018-05-31T23:55:39.650Z,15.20
2018-05-31T23:58:08.075Z,15.18
